Koyo — JD2279 — position and weather

sailwx.info

Track history (hours):
 
Tides and Currents Weather Stations Pressure Air Temp Water Temp Dewpoint Dewpoint Depression Visibility Wind Speed Wind Dir Waves Ship Positions

Koyo

Last reported at 2017-Oct-19 09:36 UTC. Time now 2017-Oct-19 12:29 UTC.
Position N 34°35' E 134°51'.

Length 80 m; draft 3.7 m.

Type: Cargo ship. MMSI: 431301812.

Date/timePositionNaut miles runAvg speedWind from/ knotsBaromVisibWave heightAir tempDewpointWater temp
2017-Oct-19 09:36N 34°35' E 134°51'214.9
2017-Oct-19 09:28N 34°36' E 134°53'713.8
2017-Oct-19 08:58N 34°37' E 135°01'612.9
2017-Oct-19 08:30N 34°37' E 135°08'612.3
2017-Oct-19 08:00N 34°38' E 135°15'1 2.1
2017-Oct-19 07:30N 34°39' E 135°15'0 0.0
2017-Oct-19 07:00N 34°39' E 135°15'1 1.5
2017-Oct-19 06:30N 34°39' E 135°15'0 0.1
2017-Oct-19 05:57N 34°39' E 135°15'0 0.9
2017-Oct-19 05:29N 34°39' E 135°15'0 0.0
2017-Oct-19 04:53N 34°39' E 135°15'0 0.0
2017-Oct-19 04:21N 34°39' E 135°15'0 0.4
2017-Oct-19 04:01N 34°39' E 135°15'1 1.3
2017-Oct-19 03:23N 34°38' E 135°15'0 0.0
2017-Oct-19 02:59N 34°38' E 135°15'3 6.8
2017-Oct-19 02:30N 34°39' E 135°19'611.2
2017-Oct-19 02:00N 34°39' E 135°26'1 0.3
2017-Oct-18 23:32N 34°38' E 135°26'0 0.6
2017-Oct-18 23:30N 34°38' E 135°26'2 4.3
2017-Oct-18 23:00N 34°38' E 135°24'5 9.3
2017-Oct-18 22:30N 34°36' E 135°19'4 7.3
2017-Oct-18 22:00N 34°38' E 135°15'4 8.4
2017-Oct-18 21:29N 34°42' E 135°13'0 0.0
2017-Oct-18 20:49N 34°42' E 135°13'0 0.0
2017-Oct-18 20:25N 34°42' E 135°13'0 0.0
2017-Oct-18 19:55N 34°42' E 135°13'0 0.0
2017-Oct-18 19:13N 34°42' E 135°13'0 0.0
2017-Oct-18 18:55N 34°42' E 135°13'0 0.0
2017-Oct-18 18:25N 34°42' E 135°13'0 0.0
2017-Oct-18 17:49N 34°42' E 135°13'0 0.0
2017-Oct-18 17:19N 34°42' E 135°13'0 0.0
2017-Oct-18 16:55N 34°42' E 135°13'0 0.0
2017-Oct-18 16:25N 34°42' E 135°13'0 0.0
2017-Oct-18 15:55N 34°42' E 135°13'0 0.0
2017-Oct-18 15:13N 34°42' E 135°13'0 0.0
2017-Oct-18 14:55N 34°42' E 135°13'0 0.0
2017-Oct-18 13:55N 34°42' E 135°13'0 0.0
2017-Oct-18 13:25N 34°42' E 135°13'0 0.0
2017-Oct-18 12:55N 34°42' E 135°13'0 0.0
2017-Oct-18 12:19N 34°42' E 135°13'0 0.0
2017-Oct-18 11:55N 34°42' E 135°13'0 0.0
2017-Oct-18 11:25N 34°42' E 135°13'0 0.0
2017-Oct-18 10:49N 34°42' E 135°13'0 0.0
2017-Oct-18 10:19N 34°42' E 135°13'0 0.0
2017-Oct-18 09:55N 34°42' E 135°13'0 0.0
2017-Oct-18 09:25N 34°42' E 135°13'0 0.0
2017-Oct-18 08:55N 34°42' E 135°13'0 0.0
2017-Oct-18 08:25N 34°42' E 135°13'0 0.0
2017-Oct-18 07:43N 34°42' E 135°13'0 0.0
2017-Oct-18 07:25N 34°42' E 135°13'0 0.0
2017-Oct-18 06:55N 34°42' E 135°13'0 0.0
2017-Oct-18 06:25N 34°42' E 135°13'0 0.0
2017-Oct-18 05:55N 34°42' E 135°13'0 0.0
2017-Oct-18 05:25N 34°42' E 135°13'0 0.0
2017-Oct-18 04:55N 34°42' E 135°13'0 0.0
2017-Oct-18 04:25N 34°42' E 135°13'0 0.0
2017-Oct-18 03:31N 34°42' E 135°13'0 0.1
2017-Oct-18 03:25N 34°42' E 135°13'0 0.0
2017-Oct-18 02:49N 34°42' E 135°13'0 0.0
2017-Oct-18 02:25N 34°42' E 135°13'0 0.0
2017-Oct-18 01:55N 34°42' E 135°13'0 0.0
2017-Oct-18 01:25N 34°42' E 135°13'0 0.1
2017-Oct-18 01:00N 34°42' E 135°13'3 4.5
2017-Oct-18 00:25N 34°39' E 135°15'0 0.0
2017-Oct-17 23:55N 34°39' E 135°15'0 0.0
2017-Oct-17 23:30N 34°39' E 135°15'0 0.5
2017-Oct-17 23:00N 34°39' E 135°15'1 1.4
2017-Oct-17 22:29N 34°39' E 135°15'0 0.0
2017-Oct-17 22:00N 34°39' E 135°15'0 0.0
2017-Oct-17 21:30N 34°39' E 135°15'0 0.0
2017-Oct-17 21:00N 34°39' E 135°15'0 0.0
2017-Oct-17 20:30N 34°39' E 135°15'0 0.0
2017-Oct-17 20:00N 34°39' E 135°15'2 4.3
2017-Oct-17 19:30N 34°37' E 135°13'612.8
2017-Oct-17 19:00N 34°35' E 135°06'713.1
2017-Oct-17 18:29N 34°37' E 134°58'713.8
2017-Oct-17 18:00N 34°34' E 134°51'3 0.1
2017-Oct-16 04:42N 34°36' E 134°53'412.1
2017-Oct-16 04:24N 34°37' E 134°58'4 9.8
2017-Oct-16 03:59N 34°37' E 135°02'511.2
2017-Oct-16 03:31N 34°36' E 135°09'611.4
2017-Oct-16 03:00N 34°39' E 135°15'1 1.3
2017-Oct-16 02:25N 34°39' E 135°14'0 0.0
2017-Oct-16 01:49N 34°39' E 135°14'0 0.0
2017-Oct-16 01:19N 34°39' E 135°14'0 0.0
2017-Oct-16 00:55N 34°39' E 135°14'0 0.0
2017-Oct-16 00:19N 34°39' E 135°14'0 0.0
2017-Oct-15 23:55N 34°39' E 135°14'0 0.0
2017-Oct-15 23:25N 34°39' E 135°14'2 3.7
2017-Oct-15 23:00N 34°41' E 135°14'1 1.5
2017-Oct-15 22:25N 34°42' E 135°13'0 0.0
2017-Oct-15 21:55N 34°42' E 135°13'0 0.0
2017-Oct-15 21:25N 34°42' E 135°13'0 0.0
2017-Oct-15 20:55N 34°42' E 135°13'0 0.0
2017-Oct-15 20:25N 34°42' E 135°13'0 0.0
2017-Oct-15 19:55N 34°42' E 135°13'0 0.0
2017-Oct-15 19:25N 34°42' E 135°13'0 0.0
2017-Oct-15 18:55N 34°42' E 135°13'0 0.0
2017-Oct-15 18:19N 34°42' E 135°13'0 0.0
2017-Oct-15 17:31N 34°42' E 135°13'0 0.0
2017-Oct-15 17:25N 34°42' E 135°13'0 0.0
2017-Oct-15 16:43N 34°42' E 135°13'0 0.0
2017-Oct-15 16:13N 34°42' E 135°13'0 0.0
2017-Oct-15 15:55N 34°42' E 135°13'0 0.0
2017-Oct-15 15:25N 34°42' E 135°13'0 0.0
2017-Oct-15 14:49N 34°42' E 135°13'0 0.0
2017-Oct-15 13:31N 34°42' E 135°13'0 0.0
2017-Oct-15 13:25N 34°42' E 135°13'0 0.0
2017-Oct-15 12:55N 34°42' E 135°13'0 0.0
2017-Oct-15 12:25N 34°42' E 135°13'0 0.0
2017-Oct-15 11:55N 34°42' E 135°13'0 0.0
2017-Oct-15 11:19N 34°42' E 135°13'0 0.0
2017-Oct-15 10:55N 34°42' E 135°13'0 0.0
2017-Oct-15 10:25N 34°42' E 135°13'0 0.0
2017-Oct-15 09:55N 34°42' E 135°13'0 0.0
2017-Oct-15 09:19N 34°42' E 135°13'0 0.0
2017-Oct-15 08:55N 34°42' E 135°13'0 0.0
2017-Oct-15 08:19N 34°42' E 135°13'0 0.0
2017-Oct-15 07:49N 34°42' E 135°13'0 0.0
2017-Oct-15 07:25N 34°42' E 135°13'0 0.0
2017-Oct-15 06:55N 34°42' E 135°13'0 0.0
2017-Oct-15 06:25N 34°42' E 135°13'0 0.0
2017-Oct-15 05:55N 34°42' E 135°13'0 0.0
2017-Oct-15 05:25N 34°42' E 135°13'0 0.0
2017-Oct-15 04:55N 34°42' E 135°13'0 0.0
2017-Oct-15 04:25N 34°42' E 135°13'0 0.0
2017-Oct-15 03:49N 34°42' E 135°13'0 0.0
2017-Oct-15 03:13N 34°42' E 135°13'0 0.0
2017-Oct-15 02:55N 34°42' E 135°13'0 0.0
2017-Oct-15 02:25N 34°42' E 135°13'0 0.0
2017-Oct-15 01:55N 34°42' E 135°13'0 0.0
2017-Oct-15 01:25N 34°42' E 135°13'0 0.0
2017-Oct-15 00:49N 34°42' E 135°13'0 0.0
2017-Oct-15 00:25N 34°42' E 135°13'0 0.0
2017-Oct-14 23:55N 34°42' E 135°13'0 0.0
2017-Oct-14 23:19N 34°42' E 135°13'0 0.0
2017-Oct-14 22:55N 34°42' E 135°13'0 0.0
2017-Oct-14 22:25N 34°42' E 135°13'0 0.0
2017-Oct-14 21:49N 34°42' E 135°13'0 0.0
2017-Oct-14 21:19N 34°42' E 135°13'0 0.0
2017-Oct-14 20:55N 34°42' E 135°13'0 0.0
2017-Oct-14 20:25N 34°42' E 135°13'0 0.0
2017-Oct-14 19:49N 34°42' E 135°13'0 0.0
2017-Oct-14 19:25N 34°42' E 135°13'0 0.0
2017-Oct-14 18:55N 34°42' E 135°13'0 0.0
2017-Oct-14 18:25N 34°42' E 135°13'0 0.0
2017-Oct-14 17:55N 34°42' E 135°13'0 0.0
2017-Oct-14 17:19N 34°42' E 135°13'0 0.0
2017-Oct-14 16:55N 34°42' E 135°13'0 0.0
2017-Oct-14 16:25N 34°42' E 135°13'0 0.0
2017-Oct-14 15:55N 34°42' E 135°13'0 0.0
2017-Oct-14 15:25N 34°42' E 135°13'0 0.0
2017-Oct-14 14:55N 34°42' E 135°13'0 0.0
2017-Oct-14 14:25N 34°42' E 135°13'0 0.0
2017-Oct-14 13:55N 34°42' E 135°13'0 0.0
2017-Oct-14 13:25N 34°42' E 135°13'0 0.0
2017-Oct-14 13:00N 34°42' E 135°13'1 2.4
2017-Oct-14 12:30N 34°41' E 135°14'5 9.1
2017-Oct-14 12:00N 34°37' E 135°12'612.8
2017-Oct-14 11:30N 34°35' E 135°04'612.3
2017-Oct-14 11:00N 34°36' E 134°57'5 0.3
2017-Oct-13 16:51N 34°35' E 134°51'412.5
2017-Oct-13 16:30N 34°36' E 134°56'610.7
2017-Oct-13 15:59N 34°37' E 135°02'611.6
2017-Oct-13 15:30N 34°37' E 135°09'510.9
2017-Oct-13 15:00N 34°39' E 135°15'0 0.8
2017-Oct-13 14:28N 34°39' E 135°15'0 0.0
2017-Oct-13 13:58N 34°39' E 135°15'0 0.0
2017-Oct-13 13:22N 34°39' E 135°15'0 0.1
2017-Oct-13 12:58N 34°39' E 135°15'0 0.9
2017-Oct-13 12:30N 34°39' E 135°15'611.4
2017-Oct-13 12:00N 34°34' E 135°11'612.6
2017-Oct-13 11:30N 34°29' E 135°07'612.2
2017-Oct-13 11:00N 34°24' E 135°04'611.8
2017-Oct-13 10:29N 34°18' E 135°00'5 9.9
2017-Oct-13 09:59N 34°14' E 135°03'4 9.5
2017-Oct-13 09:30N 34°12' E 135°09'0 0.0
2017-Oct-13 08:57N 34°12' E 135°09'0 0.0
2017-Oct-13 08:30N 34°12' E 135°09'0 0.0
2017-Oct-13 08:00N 34°12' E 135°09'3 6.4
2017-Oct-13 07:30N 34°12' E 135°05'712.8
2017-Oct-13 06:59N 34°09' E 134°58'7 2.0
2017-Oct-13 03:25N 34°08' E 134°49'513.3
2017-Oct-13 03:00N 34°12' E 134°54'812.5
2017-Oct-13 02:24N 34°18' E 134°59'512.8
2017-Oct-13 02:00N 34°23' E 135°01'713.2
2017-Oct-13 01:30N 34°28' E 135°06'713.7
2017-Oct-13 01:00N 34°34' E 135°11'613.0
2017-Oct-13 00:30N 34°39' E 135°15'1 0.9
2017-Oct-12 23:56N 34°39' E 135°15'0 0.0
2017-Oct-12 23:20N 34°39' E 135°15'0 0.1
2017-Oct-12 23:00N 34°39' E 135°15'1 1.5
2017-Oct-12 22:30N 34°38' E 135°15'0 0.0
2017-Oct-12 21:54N 34°38' E 135°15'0 0.0
2017-Oct-12 21:30N 34°38' E 135°15'0 0.0
2017-Oct-12 20:54N 34°38' E 135°15'0 0.0
2017-Oct-12 20:30N 34°38' E 135°15'0 0.0
2017-Oct-12 20:00N 34°38' E 135°15'0 0.0
2017-Oct-12 19:30N 34°38' E 135°15'0 0.0
2017-Oct-12 19:00N 34°38' E 135°15'0 0.0
2017-Oct-12 18:12N 34°39' E 135°15'0 0.0
2017-Oct-12 17:54N 34°39' E 135°15'0 0.0
2017-Oct-12 17:30N 34°39' E 135°15'0 0.0
2017-Oct-12 16:48N 34°39' E 135°15'0 0.0
2017-Oct-12 16:30N 34°39' E 135°15'0 0.0
2017-Oct-12 16:00N 34°39' E 135°15'0 0.0
2017-Oct-12 15:30N 34°39' E 135°15'0 0.0
2017-Oct-12 15:00N 34°39' E 135°15'0 0.0
2017-Oct-12 14:24N 34°39' E 135°15'0 0.0
2017-Oct-12 14:00N 34°39' E 135°15'0 0.0
2017-Oct-12 13:30N 34°39' E 135°15'0 0.0
2017-Oct-12 13:00N 34°39' E 135°15'0 0.1
2017-Oct-12 12:30N 34°38' E 135°15'4 7.1
2017-Oct-12 12:00N 34°36' E 135°11'611.8
2017-Oct-12 11:30N 34°34' E 135°05'712.4
2017-Oct-12 10:55N 34°36' E 134°56'16 0.4
2017-Oct-10 23:54N 34°39' E 135°15'0 0.0
2017-Oct-10 23:12N 34°39' E 135°15'0 0.0
2017-Oct-10 23:00N 34°39' E 135°15'0 0.0
2017-Oct-10 22:24N 34°39' E 135°15'0 0.0
2017-Oct-10 22:00N 34°39' E 135°15'0 0.0
2017-Oct-10 21:30N 34°39' E 135°15'0 0.0
2017-Oct-10 21:00N 34°39' E 135°15'0 0.5
2017-Oct-10 20:30N 34°39' E 135°15'5 9.1
2017-Oct-10 20:00N 34°36' E 135°10'612.6
2017-Oct-10 19:30N 34°36' E 135°03'713.6
2017-Oct-10 19:00N 34°35' E 134°54'  
Track history (hours):
 
Tides and Currents Weather Stations Pressure Air Temp Water Temp Dewpoint Dewpoint Depression Visibility Wind Speed Wind Dir Waves Ship Positions

Koyo

Last reported at 2017-Oct-19 09:36 UTC. Time now 2017-Oct-19 12:29 UTC.
Position N 34°35' E 134°51'.

Length 80 m; draft 3.7 m.

Type: Cargo ship. MMSI: 431301812.

Date/timePositionNaut miles runAvg speedWind from/ knotsBaromVisibWave heightAir tempDewpointWater temp
2017-Oct-19 09:36N 34°35' E 134°51'214.9
2017-Oct-19 09:28N 34°36' E 134°53'713.8
2017-Oct-19 08:58N 34°37' E 135°01'612.9
2017-Oct-19 08:30N 34°37' E 135°08'612.3
2017-Oct-19 08:00N 34°38' E 135°15'1 2.1
2017-Oct-19 07:30N 34°39' E 135°15'0 0.0
2017-Oct-19 07:00N 34°39' E 135°15'1 1.5
2017-Oct-19 06:30N 34°39' E 135°15'0 0.1
2017-Oct-19 05:57N 34°39' E 135°15'0 0.9
2017-Oct-19 05:29N 34°39' E 135°15'0 0.0
2017-Oct-19 04:53N 34°39' E 135°15'0 0.0
2017-Oct-19 04:21N 34°39' E 135°15'0 0.4
2017-Oct-19 04:01N 34°39' E 135°15'1 1.3
2017-Oct-19 03:23N 34°38' E 135°15'0 0.0
2017-Oct-19 02:59N 34°38' E 135°15'3 6.8
2017-Oct-19 02:30N 34°39' E 135°19'611.2
2017-Oct-19 02:00N 34°39' E 135°26'1 0.3
2017-Oct-18 23:32N 34°38' E 135°26'0 0.6
2017-Oct-18 23:30N 34°38' E 135°26'2 4.3
2017-Oct-18 23:00N 34°38' E 135°24'5 9.3
2017-Oct-18 22:30N 34°36' E 135°19'4 7.3
2017-Oct-18 22:00N 34°38' E 135°15'4 8.4
2017-Oct-18 21:29N 34°42' E 135°13'0 0.0
2017-Oct-18 20:49N 34°42' E 135°13'0 0.0
2017-Oct-18 20:25N 34°42' E 135°13'0 0.0
2017-Oct-18 19:55N 34°42' E 135°13'0 0.0
2017-Oct-18 19:13N 34°42' E 135°13'0 0.0
2017-Oct-18 18:55N 34°42' E 135°13'0 0.0
2017-Oct-18 18:25N 34°42' E 135°13'0 0.0
2017-Oct-18 17:49N 34°42' E 135°13'0 0.0
2017-Oct-18 17:19N 34°42' E 135°13'0 0.0
2017-Oct-18 16:55N 34°42' E 135°13'0 0.0
2017-Oct-18 16:25N 34°42' E 135°13'0 0.0
2017-Oct-18 15:55N 34°42' E 135°13'0 0.0
2017-Oct-18 15:13N 34°42' E 135°13'0 0.0
2017-Oct-18 14:55N 34°42' E 135°13'0 0.0
2017-Oct-18 13:55N 34°42' E 135°13'0 0.0
2017-Oct-18 13:25N 34°42' E 135°13'0 0.0
2017-Oct-18 12:55N 34°42' E 135°13'0 0.0
2017-Oct-18 12:19N 34°42' E 135°13'0 0.0
2017-Oct-18 11:55N 34°42' E 135°13'0 0.0
2017-Oct-18 11:25N 34°42' E 135°13'0 0.0
2017-Oct-18 10:49N 34°42' E 135°13'0 0.0
2017-Oct-18 10:19N 34°42' E 135°13'0 0.0
2017-Oct-18 09:55N 34°42' E 135°13'0 0.0
2017-Oct-18 09:25N 34°42' E 135°13'0 0.0
2017-Oct-18 08:55N 34°42' E 135°13'0 0.0
2017-Oct-18 08:25N 34°42' E 135°13'0 0.0
2017-Oct-18 07:43N 34°42' E 135°13'0 0.0
2017-Oct-18 07:25N 34°42' E 135°13'0 0.0
2017-Oct-18 06:55N 34°42' E 135°13'0 0.0
2017-Oct-18 06:25N 34°42' E 135°13'0 0.0
2017-Oct-18 05:55N 34°42' E 135°13'0 0.0
2017-Oct-18 05:25N 34°42' E 135°13'0 0.0
2017-Oct-18 04:55N 34°42' E 135°13'0 0.0
2017-Oct-18 04:25N 34°42' E 135°13'0 0.0
2017-Oct-18 03:31N 34°42' E 135°13'0 0.1
2017-Oct-18 03:25N 34°42' E 135°13'0 0.0
2017-Oct-18 02:49N 34°42' E 135°13'0 0.0
2017-Oct-18 02:25N 34°42' E 135°13'0 0.0
2017-Oct-18 01:55N 34°42' E 135°13'0 0.0
2017-Oct-18 01:25N 34°42' E 135°13'0 0.1
2017-Oct-18 01:00N 34°42' E 135°13'3 4.5
2017-Oct-18 00:25N 34°39' E 135°15'0 0.0
2017-Oct-17 23:55N 34°39' E 135°15'0 0.0
2017-Oct-17 23:30N 34°39' E 135°15'0 0.5
2017-Oct-17 23:00N 34°39' E 135°15'1 1.4
2017-Oct-17 22:29N 34°39' E 135°15'0 0.0
2017-Oct-17 22:00N 34°39' E 135°15'0 0.0
2017-Oct-17 21:30N 34°39' E 135°15'0 0.0
2017-Oct-17 21:00N 34°39' E 135°15'0 0.0
2017-Oct-17 20:30N 34°39' E 135°15'0 0.0
2017-Oct-17 20:00N 34°39' E 135°15'2 4.3
2017-Oct-17 19:30N 34°37' E 135°13'612.8
2017-Oct-17 19:00N 34°35' E 135°06'713.1
2017-Oct-17 18:29N 34°37' E 134°58'713.8
2017-Oct-17 18:00N 34°34' E 134°51'3 0.1
2017-Oct-16 04:42N 34°36' E 134°53'412.1
2017-Oct-16 04:24N 34°37' E 134°58'4 9.8
2017-Oct-16 03:59N 34°37' E 135°02'511.2
2017-Oct-16 03:31N 34°36' E 135°09'611.4
2017-Oct-16 03:00N 34°39' E 135°15'1 1.3
2017-Oct-16 02:25N 34°39' E 135°14'0 0.0
2017-Oct-16 01:49N 34°39' E 135°14'0 0.0
2017-Oct-16 01:19N 34°39' E 135°14'0 0.0
2017-Oct-16 00:55N 34°39' E 135°14'0 0.0
2017-Oct-16 00:19N 34°39' E 135°14'0 0.0
2017-Oct-15 23:55N 34°39' E 135°14'0 0.0
2017-Oct-15 23:25N 34°39' E 135°14'2 3.7
2017-Oct-15 23:00N 34°41' E 135°14'1 1.5
2017-Oct-15 22:25N 34°42' E 135°13'0 0.0
2017-Oct-15 21:55N 34°42' E 135°13'0 0.0
2017-Oct-15 21:25N 34°42' E 135°13'0 0.0
2017-Oct-15 20:55N 34°42' E 135°13'0 0.0
2017-Oct-15 20:25N 34°42' E 135°13'0 0.0
2017-Oct-15 19:55N 34°42' E 135°13'0 0.0
2017-Oct-15 19:25N 34°42' E 135°13'0 0.0
2017-Oct-15 18:55N 34°42' E 135°13'0 0.0
2017-Oct-15 18:19N 34°42' E 135°13'0 0.0
2017-Oct-15 17:31N 34°42' E 135°13'0 0.0
2017-Oct-15 17:25N 34°42' E 135°13'0 0.0
2017-Oct-15 16:43N 34°42' E 135°13'0 0.0
2017-Oct-15 16:13N 34°42' E 135°13'0 0.0
2017-Oct-15 15:55N 34°42' E 135°13'0 0.0
2017-Oct-15 15:25N 34°42' E 135°13'0 0.0
2017-Oct-15 14:49N 34°42' E 135°13'0 0.0
2017-Oct-15 13:31N 34°42' E 135°13'0 0.0
2017-Oct-15 13:25N 34°42' E 135°13'0 0.0
2017-Oct-15 12:55N 34°42' E 135°13'0 0.0
2017-Oct-15 12:25N 34°42' E 135°13'0 0.0
2017-Oct-15 11:55N 34°42' E 135°13'0 0.0
2017-Oct-15 11:19N 34°42' E 135°13'0 0.0
2017-Oct-15 10:55N 34°42' E 135°13'0 0.0
2017-Oct-15 10:25N 34°42' E 135°13'0 0.0
2017-Oct-15 09:55N 34°42' E 135°13'0 0.0
2017-Oct-15 09:19N 34°42' E 135°13'0 0.0
2017-Oct-15 08:55N 34°42' E 135°13'0 0.0
2017-Oct-15 08:19N 34°42' E 135°13'0 0.0
2017-Oct-15 07:49N 34°42' E 135°13'0 0.0
2017-Oct-15 07:25N 34°42' E 135°13'0 0.0
2017-Oct-15 06:55N 34°42' E 135°13'0 0.0
2017-Oct-15 06:25N 34°42' E 135°13'0 0.0
2017-Oct-15 05:55N 34°42' E 135°13'0 0.0
2017-Oct-15 05:25N 34°42' E 135°13'0 0.0
2017-Oct-15 04:55N 34°42' E 135°13'0 0.0
2017-Oct-15 04:25N 34°42' E 135°13'0 0.0
2017-Oct-15 03:49N 34°42' E 135°13'0 0.0
2017-Oct-15 03:13N 34°42' E 135°13'0 0.0
2017-Oct-15 02:55N 34°42' E 135°13'0 0.0
2017-Oct-15 02:25N 34°42' E 135°13'0 0.0
2017-Oct-15 01:55N 34°42' E 135°13'0 0.0
2017-Oct-15 01:25N 34°42' E 135°13'0 0.0
2017-Oct-15 00:49N 34°42' E 135°13'0 0.0
2017-Oct-15 00:25N 34°42' E 135°13'0 0.0
2017-Oct-14 23:55N 34°42' E 135°13'0 0.0
2017-Oct-14 23:19N 34°42' E 135°13'0 0.0
2017-Oct-14 22:55N 34°42' E 135°13'0 0.0
2017-Oct-14 22:25N 34°42' E 135°13'0 0.0
2017-Oct-14 21:49N 34°42' E 135°13'0 0.0
2017-Oct-14 21:19N 34°42' E 135°13'0 0.0
2017-Oct-14 20:55N 34°42' E 135°13'0 0.0
2017-Oct-14 20:25N 34°42' E 135°13'0 0.0
2017-Oct-14 19:49N 34°42' E 135°13'0 0.0
2017-Oct-14 19:25N 34°42' E 135°13'0 0.0
2017-Oct-14 18:55N 34°42' E 135°13'0 0.0
2017-Oct-14 18:25N 34°42' E 135°13'0 0.0
2017-Oct-14 17:55N 34°42' E 135°13'0 0.0
2017-Oct-14 17:19N 34°42' E 135°13'0 0.0
2017-Oct-14 16:55N 34°42' E 135°13'0 0.0
2017-Oct-14 16:25N 34°42' E 135°13'0 0.0
2017-Oct-14 15:55N 34°42' E 135°13'0 0.0
2017-Oct-14 15:25N 34°42' E 135°13'0 0.0
2017-Oct-14 14:55N 34°42' E 135°13'0 0.0
2017-Oct-14 14:25N 34°42' E 135°13'0 0.0
2017-Oct-14 13:55N 34°42' E 135°13'0 0.0
2017-Oct-14 13:25N 34°42' E 135°13'0 0.0
2017-Oct-14 13:00N 34°42' E 135°13'1 2.4
2017-Oct-14 12:30N 34°41' E 135°14'5 9.1
2017-Oct-14 12:00N 34°37' E 135°12'612.8
2017-Oct-14 11:30N 34°35' E 135°04'612.3
2017-Oct-14 11:00N 34°36' E 134°57'5 0.3
2017-Oct-13 16:51N 34°35' E 134°51'412.5
2017-Oct-13 16:30N 34°36' E 134°56'610.7
2017-Oct-13 15:59N 34°37' E 135°02'611.6
2017-Oct-13 15:30N 34°37' E 135°09'510.9
2017-Oct-13 15:00N 34°39' E 135°15'0 0.8
2017-Oct-13 14:28N 34°39' E 135°15'0 0.0
2017-Oct-13 13:58N 34°39' E 135°15'0 0.0
2017-Oct-13 13:22N 34°39' E 135°15'0 0.1
2017-Oct-13 12:58N 34°39' E 135°15'0 0.9
2017-Oct-13 12:30N 34°39' E 135°15'611.4
2017-Oct-13 12:00N 34°34' E 135°11'612.6
2017-Oct-13 11:30N 34°29' E 135°07'612.2
2017-Oct-13 11:00N 34°24' E 135°04'611.8
2017-Oct-13 10:29N 34°18' E 135°00'5 9.9
2017-Oct-13 09:59N 34°14' E 135°03'4 9.5
2017-Oct-13 09:30N 34°12' E 135°09'0 0.0
2017-Oct-13 08:57N 34°12' E 135°09'0 0.0
2017-Oct-13 08:30N 34°12' E 135°09'0 0.0
2017-Oct-13 08:00N 34°12' E 135°09'3 6.4
2017-Oct-13 07:30N 34°12' E 135°05'712.8
2017-Oct-13 06:59N 34°09' E 134°58'7 2.0
2017-Oct-13 03:25N 34°08' E 134°49'513.3
2017-Oct-13 03:00N 34°12' E 134°54'812.5
2017-Oct-13 02:24N 34°18' E 134°59'512.8
2017-Oct-13 02:00N 34°23' E 135°01'713.2
2017-Oct-13 01:30N 34°28' E 135°06'713.7
2017-Oct-13 01:00N 34°34' E 135°11'613.0
2017-Oct-13 00:30N 34°39' E 135°15'1 0.9
2017-Oct-12 23:56N 34°39' E 135°15'0 0.0
2017-Oct-12 23:20N 34°39' E 135°15'0 0.1
2017-Oct-12 23:00N 34°39' E 135°15'1 1.5
2017-Oct-12 22:30N 34°38' E 135°15'0 0.0
2017-Oct-12 21:54N 34°38' E 135°15'0 0.0
2017-Oct-12 21:30N 34°38' E 135°15'0 0.0
2017-Oct-12 20:54N 34°38' E 135°15'0 0.0
2017-Oct-12 20:30N 34°38' E 135°15'0 0.0
2017-Oct-12 20:00N 34°38' E 135°15'0 0.0
2017-Oct-12 19:30N 34°38' E 135°15'0 0.0
2017-Oct-12 19:00N 34°38' E 135°15'0 0.0
2017-Oct-12 18:12N 34°39' E 135°15'0 0.0
2017-Oct-12 17:54N 34°39' E 135°15'0 0.0
2017-Oct-12 17:30N 34°39' E 135°15'0 0.0
2017-Oct-12 16:48N 34°39' E 135°15'0 0.0
2017-Oct-12 16:30N 34°39' E 135°15'0 0.0
2017-Oct-12 16:00N 34°39' E 135°15'0 0.0
2017-Oct-12 15:30N 34°39' E 135°15'0 0.0
2017-Oct-12 15:00N 34°39' E 135°15'0 0.0
2017-Oct-12 14:24N 34°39' E 135°15'0 0.0
2017-Oct-12 14:00N 34°39' E 135°15'0 0.0
2017-Oct-12 13:30N 34°39' E 135°15'0 0.0
2017-Oct-12 13:00N 34°39' E 135°15'0 0.1
2017-Oct-12 12:30N 34°38' E 135°15'4 7.1
2017-Oct-12 12:00N 34°36' E 135°11'611.8
2017-Oct-12 11:30N 34°34' E 135°05'712.4
2017-Oct-12 10:55N 34°36' E 134°56'16 0.4
2017-Oct-10 23:54N 34°39' E 135°15'0 0.0
2017-Oct-10 23:12N 34°39' E 135°15'0 0.0
2017-Oct-10 23:00N 34°39' E 135°15'0 0.0
2017-Oct-10 22:24N 34°39' E 135°15'0 0.0
2017-Oct-10 22:00N 34°39' E 135°15'0 0.0
2017-Oct-10 21:30N 34°39' E 135°15'0 0.0
2017-Oct-10 21:00N 34°39' E 135°15'0 0.5
2017-Oct-10 20:30N 34°39' E 135°15'5 9.1
2017-Oct-10 20:00N 34°36' E 135°10'612.6
2017-Oct-10 19:30N 34°36' E 135°03'713.6
2017-Oct-10 19:00N 34°35' E 134°54'  

Dump ship's entire track history